createdAt,value
2023-01-19T00:01:06.617Z,4.38
2023-01-19T00:03:35.335Z,4.00
2023-01-19T00:06:19.802Z,4.50
2023-01-19T00:08:48.712Z,4.93
2023-01-19T00:11:25.549Z,3.90
2023-01-19T00:13:57.882Z,3.63
2023-01-19T00:16:24.727Z,3.42
2023-01-19T00:18:54.066Z,5.22
2023-01-19T00:21:22.349Z,5.00
2023-01-19T00:23:51.318Z,4.80
2023-01-19T00:26:19.357Z,4.50
2023-01-19T00:28:46.259Z,4.93
2023-01-19T00:31:14.027Z,4.93
2023-01-19T00:33:41.470Z,4.40
2023-01-19T00:36:17.459Z,1.30
2023-01-19T00:38:44.272Z,2.08
2023-01-19T00:41:12.574Z,1.67
2023-01-19T00:43:41.790Z,1.83
2023-01-19T00:46:12.153Z,1.88
2023-01-19T00:48:38.885Z,1.70
2023-01-19T00:51:06.309Z,1.52
2023-01-19T00:53:52.172Z,1.63
2023-01-19T00:56:19.219Z,1.50
2023-01-19T00:58:49.690Z,1.55
2023-01-19T01:01:16.682Z,1.48
2023-01-19T01:03:47.414Z,1.27
2023-01-19T01:06:17.063Z,2.08
2023-01-19T01:08:43.808Z,2.88
2023-01-19T01:11:19.721Z,3.67
2023-01-19T01:13:49.111Z,3.35
2023-01-19T01:16:16.557Z,3.95
2023-01-19T01:18:44.684Z,4.03
2023-01-19T01:21:13.060Z,4.30
2023-01-19T01:26:06.702Z,4.18
2023-01-19T01:28:38.023Z,2.53
2023-01-19T01:31:05.431Z,1.70
2023-01-19T01:37:14.115Z,1.00
2023-01-19T01:39:42.207Z,1.55
2023-01-19T01:42:18.754Z,1.58
2023-01-19T01:44:51.708Z,2.33
2023-01-19T01:47:27.366Z,1.90
2023-01-19T01:49:59.823Z,2.25
2023-01-19T01:52:29.563Z,2.03
2023-01-19T01:54:58.107Z,2.20
2023-01-19T01:59:58.107Z,1.92
2023-01-19T02:02:46.937Z,1.85
2023-01-19T02:05:37.231Z,1.70
2023-01-19T02:08:38.690Z,1.42
2023-01-19T02:11:25.648Z,1.60
2023-01-19T02:13:53.338Z,1.10
2023-01-19T02:16:21.301Z,1.00
2023-01-19T02:18:52.077Z,0.80
2023-01-19T02:21:35.267Z,0.80
2023-01-19T02:24:03.119Z,1.00
2023-01-19T02:26:35.406Z,0.57
2023-01-19T02:29:08.778Z,0.88
2023-01-19T02:31:37.837Z,0.73
2023-01-19T02:34:06.309Z,0.70
2023-01-19T02:39:04.965Z,0.85
2023-01-19T02:41:36.975Z,0.70
2023-01-19T02:44:06.473Z,0.80
2023-01-19T02:46:34.354Z,0.60
2023-01-19T02:49:01.450Z,0.50
2023-01-19T02:51:48.532Z,0.50
2023-01-19T02:54:27.273Z,1.00
2023-01-19T02:57:01.880Z,0.85
2023-01-19T03:00:09.958Z,0.55
2023-01-19T03:05:51.996Z,0.17
2023-01-19T03:08:23.653Z,0.70
2023-01-19T03:11:02.801Z,1.58
2023-01-19T03:13:59.905Z,0.90
2023-01-19T03:16:37.305Z,0.65
2023-01-19T03:19:19.736Z,0.40
2023-01-19T03:22:03.956Z,0.60
2023-01-19T03:24:38.203Z,0.20
2023-01-19T03:27:20.009Z,0.38
2023-01-19T03:29:55.719Z,0.30
2023-01-19T03:32:30.634Z,0.55
2023-01-19T03:35:01.716Z,0.30
2023-01-19T03:43:42.337Z,0.30
2023-01-19T03:46:11.463Z,0.60
2023-01-19T03:48:42.082Z,0.50
2023-01-19T03:51:09.866Z,0.30
2023-01-19T03:53:36.654Z,0.50
2023-01-19T03:56:03.828Z,0.25
2023-01-19T03:58:30.748Z,0.45
2023-01-19T04:00:57.687Z,0.65
2023-01-19T04:03:24.553Z,0.30
2023-01-19T04:05:51.498Z,0.47
2023-01-19T04:08:18.102Z,0.32
2023-01-19T04:10:44.941Z,0.38
2023-01-19T04:13:12.224Z,0.43
2023-01-19T04:15:38.874Z,0.32
2023-01-19T04:18:09.729Z,0.40
2023-01-19T04:20:37.330Z,0.50
2023-01-19T04:23:04.396Z,0.30
2023-01-19T04:25:31.501Z,0.40
2023-01-19T04:27:58.906Z,0.30
2023-01-19T04:30:26.635Z,0.28
2023-01-19T04:32:55.426Z,0.40
2023-01-19T04:35:22.676Z,0.05
2023-01-19T04:37:49.345Z,0.05
2023-01-19T04:40:15.966Z,0.60
2023-01-19T04:42:49.366Z,0.20
2023-01-19T04:45:16.263Z,0.17
2023-01-19T04:47:43.093Z,0.43
2023-01-19T04:50:11.325Z,0.32
2023-01-19T04:52:37.960Z,0.47
2023-01-19T04:55:06.443Z,0.10
2023-01-19T05:00:00.182Z,0.25
2023-01-19T05:02:27.391Z,0.43
2023-01-19T05:04:56.644Z,0.40
2023-01-19T05:07:25.692Z,0.85
2023-01-19T05:09:55.031Z,0.93
2023-01-19T05:12:23.892Z,0.30
2023-01-19T05:14:50.488Z,0.55
2023-01-19T05:17:17.008Z,0.32
2023-01-19T05:19:43.604Z,0.73
2023-01-19T05:22:17.991Z,0.45
2023-01-19T05:24:44.844Z,0.90
2023-01-19T05:27:12.048Z,0.25
2023-01-19T05:29:38.938Z,0.93
2023-01-19T05:32:07.092Z,0.68
2023-01-19T05:34:36.757Z,0.60
2023-01-19T05:37:03.637Z,0.35
2023-01-19T05:39:30.725Z,0.80
2023-01-19T05:41:57.595Z,0.90
2023-01-19T05:44:24.522Z,0.80
2023-01-19T05:46:51.079Z,1.02
2023-01-19T05:49:18.593Z,1.23
2023-01-19T05:51:45.516Z,1.58
2023-01-19T05:54:17.837Z,1.63
2023-01-19T05:56:46.965Z,0.88
2023-01-19T05:59:13.498Z,0.90
2023-01-19T06:01:40.613Z,1.38
2023-01-19T06:04:09.650Z,1.15
2023-01-19T06:06:36.513Z,1.02
2023-01-19T06:09:03.387Z,1.00
2023-01-19T06:11:32.353Z,1.17
2023-01-19T06:14:03.998Z,1.50
2023-01-19T06:16:32.898Z,0.70
2023-01-19T06:19:01.963Z,0.80
2023-01-19T06:21:28.591Z,0.98
2023-01-19T06:23:55.074Z,1.48
2023-01-19T06:26:21.798Z,0.73
2023-01-19T06:28:48.695Z,1.02
2023-01-19T06:31:15.362Z,0.60
2023-01-19T06:33:42.368Z,0.88
2023-01-19T06:36:11.721Z,1.10
2023-01-19T06:38:38.635Z,1.40
2023-01-19T06:41:05.854Z,0.70
2023-01-19T06:43:33.137Z,0.70
2023-01-19T06:46:00.737Z,1.30
2023-01-19T06:48:33.904Z,1.58
2023-01-19T06:51:03.006Z,1.38
2023-01-19T06:53:32.179Z,1.35
2023-01-19T06:56:01.312Z,1.00
2023-01-19T06:58:29.184Z,1.48
2023-01-19T07:00:56.598Z,1.25
2023-01-19T07:03:23.730Z,1.23
2023-01-19T07:05:54.174Z,1.23
2023-01-19T07:08:20.949Z,0.95
2023-01-19T07:11:25.650Z,1.23
2023-01-19T07:13:35.796Z,1.67
2023-01-19T07:16:14.696Z,2.00
2023-01-19T07:18:41.556Z,1.00
2023-01-19T07:21:08.692Z,1.27
2023-01-19T07:23:35.743Z,0.88
2023-01-19T07:26:05.439Z,1.05
2023-01-19T07:28:33.188Z,1.00
2023-01-19T07:31:15.962Z,1.15
2023-01-19T07:33:43.476Z,1.25
2023-01-19T07:36:11.948Z,0.57
2023-01-19T07:38:38.912Z,1.08
2023-01-19T07:41:11.676Z,0.90
2023-01-19T07:43:38.263Z,1.40
2023-01-19T07:46:07.199Z,1.40
2023-01-19T07:48:35.468Z,1.50
2023-01-19T07:51:05.974Z,1.52
2023-01-19T07:53:35.399Z,1.67
2023-01-19T07:56:02.005Z,1.30
2023-01-19T07:58:31.979Z,1.40
2023-01-19T08:00:58.931Z,1.77
2023-01-19T08:03:28.073Z,1.70
2023-01-19T08:05:54.819Z,2.17
2023-01-19T08:08:24.001Z,2.08
2023-01-19T08:10:52.435Z,2.35
2023-01-19T08:15:49.704Z,1.55
2023-01-19T08:18:16.900Z,1.63
2023-01-19T08:20:44.050Z,8.80
2023-01-19T08:23:10.947Z,2.25
2023-01-19T08:25:43.120Z,1.65
2023-01-19T08:28:11.172Z,1.70
2023-01-19T08:30:38.942Z,2.55
2023-01-19T08:33:08.320Z,2.25
2023-01-19T08:35:41.252Z,1.77
2023-01-19T08:38:09.385Z,1.83
2023-01-19T08:40:42.171Z,1.50
2023-01-19T08:43:17.820Z,1.80
2023-01-19T08:45:50.017Z,1.83
2023-01-19T08:48:19.252Z,1.88
2023-01-19T08:50:48.280Z,1.80
2023-01-19T08:53:16.021Z,2.65
2023-01-19T08:55:43.256Z,2.35
2023-01-19T08:58:11.454Z,2.67
2023-01-19T09:00:39.551Z,2.67
2023-01-19T09:03:08.080Z,2.28
2023-01-19T09:05:39.234Z,2.13
2023-01-19T09:08:11.569Z,2.40
2023-01-19T09:10:39.455Z,2.38
2023-01-19T09:13:09.504Z,2.67
2023-01-19T09:15:37.851Z,2.47
2023-01-19T09:18:07.816Z,1.70
2023-01-19T09:20:36.454Z,2.15
2023-01-19T09:23:11.194Z,1.88
2023-01-19T09:25:44.533Z,2.13
2023-01-19T09:28:18.018Z,2.08
2023-01-19T09:30:45.401Z,1.70
2023-01-19T09:33:15.548Z,2.03
2023-01-19T09:35:43.228Z,1.75
2023-01-19T09:38:15.426Z,1.75
2023-01-19T09:40:56.829Z,2.25
2023-01-19T09:43:35.574Z,2.70
2023-01-19T09:46:06.326Z,1.33
2023-01-19T09:48:58.027Z,1.40
2023-01-19T09:51:27.867Z,2.25
2023-01-19T09:54:05.751Z,1.30
2023-01-19T09:56:32.996Z,1.80
2023-01-19T09:59:00.841Z,1.25
2023-01-19T10:01:35.042Z,2.50
2023-01-19T10:04:23.647Z,1.73
2023-01-19T10:06:56.873Z,1.50
2023-01-19T10:09:42.023Z,1.58
2023-01-19T10:12:19.903Z,1.55
2023-01-19T10:14:58.207Z,1.48
2023-01-19T10:17:45.653Z,1.50
2023-01-19T10:20:23.316Z,1.58
2023-01-19T10:22:52.228Z,1.50
2023-01-19T10:25:25.398Z,1.48
2023-01-19T10:27:54.614Z,1.42
2023-01-19T10:30:29.271Z,1.42
2023-01-19T10:32:56.250Z,1.67
2023-01-19T10:35:25.425Z,1.55
2023-01-19T10:38:00.398Z,1.50
2023-01-19T10:40:33.743Z,1.10
2023-01-19T10:43:00.827Z,1.13
2023-01-19T10:45:31.731Z,1.30
2023-01-19T10:48:06.532Z,1.20
2023-01-19T10:50:37.390Z,2.65
2023-01-19T10:53:06.619Z,1.02
2023-01-19T10:55:38.387Z,1.00
2023-01-19T10:58:06.970Z,1.40
2023-01-19T11:00:41.671Z,0.77
2023-01-19T11:03:25.553Z,0.98
2023-01-19T11:05:52.488Z,1.52
2023-01-19T11:08:28.672Z,1.48
2023-01-19T11:11:04.707Z,1.05
2023-01-19T11:13:33.852Z,1.05
2023-01-19T11:16:15.662Z,1.40
2023-01-19T11:18:44.203Z,1.38
2023-01-19T11:21:15.142Z,0.90
2023-01-19T11:23:55.253Z,1.17
2023-01-19T11:27:04.049Z,1.05
2023-01-19T11:29:31.618Z,1.02
2023-01-19T11:32:12.915Z,1.13
2023-01-19T11:34:39.755Z,1.02
2023-01-19T11:37:06.467Z,0.98
2023-01-19T11:39:49.613Z,1.20
2023-01-19T11:42:18.058Z,0.88
2023-01-19T11:44:55.432Z,0.80
2023-01-19T11:47:33.188Z,1.02
2023-01-19T11:50:13.293Z,0.95
2023-01-19T11:52:46.101Z,0.90
2023-01-19T11:55:12.552Z,1.17
2023-01-19T11:57:44.608Z,1.27
2023-01-19T12:00:20.305Z,0.88
2023-01-19T12:02:50.334Z,0.90
2023-01-19T12:05:21.629Z,0.80
2023-01-19T12:07:50.925Z,1.08
2023-01-19T12:10:33.388Z,1.27
2023-01-19T12:13:01.071Z,1.20
2023-01-19T12:15:41.870Z,1.05
2023-01-19T12:18:29.271Z,0.50
2023-01-19T12:20:56.979Z,0.70
2023-01-19T12:23:42.146Z,0.70
2023-01-19T12:26:17.800Z,1.13
2023-01-19T12:28:50.104Z,0.60
2023-01-19T12:31:22.600Z,1.27
2023-01-19T12:33:54.217Z,0.93
2023-01-19T12:36:29.872Z,1.05
2023-01-19T12:39:13.585Z,0.95
2023-01-19T12:41:41.380Z,0.93
2023-01-19T12:44:19.090Z,1.52
2023-01-19T12:46:49.504Z,0.90
2023-01-19T12:49:33.556Z,0.90
2023-01-19T12:52:37.609Z,0.70
2023-01-19T12:55:13.524Z,0.93
2023-01-19T12:58:01.031Z,0.70
2023-01-19T13:00:40.125Z,0.70
2023-01-19T13:03:18.883Z,0.68
2023-01-19T13:05:52.683Z,1.15
2023-01-19T13:08:27.712Z,0.93
2023-01-19T13:11:09.576Z,0.60
2023-01-19T13:13:37.206Z,0.70
2023-01-19T13:16:19.080Z,0.70
2023-01-19T13:18:52.721Z,1.10
2023-01-19T13:21:31.705Z,1.00
2023-01-19T13:24:03.468Z,1.02
2023-01-19T13:26:34.390Z,1.05
2023-01-19T13:29:14.196Z,0.52
2023-01-19T13:31:43.006Z,0.70
2023-01-19T13:34:16.703Z,0.98
2023-01-19T13:36:51.689Z,0.80
2023-01-19T13:39:37.376Z,0.82
2023-01-19T13:42:08.927Z,0.70
2023-01-19T13:44:47.077Z,0.60
2023-01-19T13:49:46.691Z,0.40
2023-01-19T13:52:21.925Z,0.43
2023-01-19T13:55:04.091Z,0.70
2023-01-19T13:57:39.717Z,0.85
2023-01-19T14:00:12.177Z,0.75
2023-01-19T14:02:41.291Z,12.48
2023-01-19T14:05:26.426Z,2.00
2023-01-19T14:08:10.071Z,0.95
2023-01-19T14:10:48.662Z,0.90
2023-01-19T14:15:50.409Z,0.70
2023-01-19T14:18:17.224Z,0.90
2023-01-19T14:20:59.433Z,0.80
2023-01-19T14:23:42.117Z,0.68
2023-01-19T14:26:41.618Z,0.95
2023-01-19T14:29:21.756Z,1.20
2023-01-19T14:32:02.624Z,1.13
2023-01-19T14:34:44.418Z,0.93
2023-01-19T14:37:24.842Z,0.80
2023-01-19T14:40:15.023Z,1.02
2023-01-19T14:42:48.130Z,0.57
2023-01-19T14:45:21.391Z,1.17
2023-01-19T14:47:59.977Z,0.60
2023-01-19T14:50:37.026Z,0.93
2023-01-19T14:53:09.757Z,1.00
2023-01-19T14:55:47.801Z,1.30
2023-01-19T14:58:18.085Z,1.60
2023-01-19T15:00:45.759Z,1.73
2023-01-19T15:03:13.324Z,1.10
2023-01-19T15:05:43.030Z,1.17
2023-01-19T15:08:20.232Z,0.95
2023-01-19T15:10:47.192Z,0.70
2023-01-19T15:13:22.368Z,0.77
2023-01-19T15:16:09.227Z,0.65
2023-01-19T15:18:36.611Z,0.93
2023-01-19T15:21:03.551Z,1.00
2023-01-19T15:23:31.672Z,0.90
2023-01-19T15:26:04.029Z,1.23
2023-01-19T15:28:31.496Z,0.93
2023-01-19T15:31:01.470Z,0.70
2023-01-19T15:33:33.650Z,0.85
2023-01-19T15:36:02.788Z,1.20
2023-01-19T15:38:31.759Z,1.67
2023-01-19T15:40:59.308Z,1.40
2023-01-19T15:43:26.179Z,0.70
2023-01-19T15:46:01.185Z,1.00
2023-01-19T15:48:28.650Z,1.23
2023-01-19T15:50:55.591Z,0.90
2023-01-19T15:53:24.463Z,0.90
2023-01-19T15:55:53.356Z,0.90
2023-01-19T15:58:21.030Z,0.90
2023-01-19T16:00:57.751Z,0.82
2023-01-19T16:03:28.410Z,1.02
2023-01-19T16:06:33.989Z,1.08
2023-01-19T16:09:01.770Z,0.88
2023-01-19T16:11:31.721Z,0.70
2023-01-19T16:13:59.811Z,0.57
2023-01-19T16:16:28.384Z,0.60
2023-01-19T16:18:58.017Z,0.60
2023-01-19T16:21:24.878Z,0.68
2023-01-19T16:23:51.989Z,0.85
2023-01-19T16:26:31.110Z,0.85
2023-01-19T16:29:08.157Z,0.50
2023-01-19T16:31:37.451Z,0.50
2023-01-19T16:34:04.162Z,0.55
2023-01-19T16:36:33.149Z,0.50
2023-01-19T16:39:06.516Z,0.75
2023-01-19T16:41:35.615Z,1.38
2023-01-19T16:44:03.196Z,0.77
2023-01-19T16:46:35.509Z,0.93
2023-01-19T16:49:23.114Z,0.90
2023-01-19T16:51:50.590Z,0.60
2023-01-19T16:54:20.559Z,0.82
2023-01-19T16:56:48.315Z,0.60
2023-01-19T16:59:21.391Z,0.93
2023-01-19T17:02:03.050Z,0.73
2023-01-19T17:04:29.697Z,1.02
2023-01-19T17:06:57.683Z,1.35
2023-01-19T17:09:24.402Z,0.75
2023-01-19T17:11:51.261Z,1.25
2023-01-19T17:14:22.884Z,1.05
2023-01-19T17:16:49.538Z,1.38
2023-01-19T17:19:18.604Z,1.17
2023-01-19T17:21:46.729Z,1.23
2023-01-19T17:24:13.356Z,1.20
2023-01-19T17:26:40.614Z,1.40
2023-01-19T17:29:09.850Z,1.38
2023-01-19T17:31:37.527Z,1.10
2023-01-19T17:34:05.088Z,1.63
2023-01-19T17:36:35.763Z,1.30
2023-01-19T17:39:07.096Z,1.10
2023-01-19T17:41:35.662Z,1.63
2023-01-19T17:44:04.826Z,1.48
2023-01-19T17:46:35.051Z,1.50
2023-01-19T17:49:05.751Z,1.27
2023-01-19T17:51:35.834Z,1.38
2023-01-19T17:54:02.850Z,1.55
2023-01-19T17:56:45.704Z,1.60
2023-01-19T17:59:13.728Z,1.30
2023-01-19T18:01:41.957Z,1.60
2023-01-19T18:04:09.142Z,1.67
2023-01-19T18:06:37.272Z,1.70
2023-01-19T18:09:07.128Z,1.45
2023-01-19T18:11:34.910Z,1.92
2023-01-19T18:14:04.266Z,1.80
2023-01-19T18:16:32.295Z,2.13
2023-01-19T18:19:01.556Z,3.22
2023-01-19T18:21:31.855Z,4.07
2023-01-19T18:24:02.637Z,4.10
2023-01-19T18:26:30.347Z,5.05
2023-01-19T18:28:57.957Z,5.20
2023-01-19T18:31:29.091Z,5.23
2023-01-19T18:33:56.310Z,5.68
2023-01-19T18:36:25.449Z,6.63
2023-01-19T18:38:53.836Z,6.40
2023-01-19T18:43:52.314Z,6.25
2023-01-19T18:46:19.450Z,5.03
2023-01-19T18:48:56.984Z,6.93
2023-01-19T18:51:29.233Z,7.40
2023-01-19T18:53:57.989Z,7.22
2023-01-19T18:56:26.076Z,6.35
2023-01-19T18:58:53.622Z,7.95
2023-01-19T19:01:24.072Z,6.40
2023-01-19T19:03:53.964Z,6.82
2023-01-19T19:06:26.271Z,7.20
2023-01-19T19:08:55.476Z,7.38
2023-01-19T19:11:26.751Z,8.57
2023-01-19T19:13:56.834Z,8.10
2023-01-19T19:16:24.505Z,7.20
2023-01-19T19:18:51.401Z,8.20
2023-01-19T19:21:19.934Z,8.80
2023-01-19T19:26:18.912Z,7.88
2023-01-19T19:28:49.791Z,6.90
2023-01-19T19:31:20.971Z,7.47
2023-01-19T19:33:49.439Z,8.23
2023-01-19T19:36:16.851Z,7.15
2023-01-19T19:38:45.115Z,6.38
2023-01-19T19:41:14.717Z,5.50
2023-01-19T19:43:41.818Z,5.72
2023-01-19T19:46:11.224Z,5.93
2023-01-19T19:48:39.417Z,5.28
2023-01-19T19:51:17.414Z,5.30
2023-01-19T19:53:51.160Z,5.00
2023-01-19T19:56:21.107Z,4.60
2023-01-19T19:58:48.848Z,4.80
2023-01-19T20:01:25.226Z,4.33
2023-01-19T20:04:00.536Z,3.38
2023-01-19T20:06:37.707Z,3.15
2023-01-19T20:09:06.743Z,3.35
2023-01-19T20:11:33.472Z,2.63
2023-01-19T20:14:00.042Z,2.28
2023-01-19T20:16:28.150Z,1.70
2023-01-19T20:18:55.304Z,1.42
2023-01-19T20:21:25.061Z,1.70
2023-01-19T20:23:53.580Z,5.32
2023-01-19T20:26:25.385Z,4.50
2023-01-19T20:28:53.033Z,0.68
2023-01-19T20:31:26.998Z,0.73
2023-01-19T20:33:56.240Z,0.90
2023-01-19T20:36:24.966Z,0.95
2023-01-19T20:38:54.813Z,1.23
2023-01-19T20:41:22.679Z,0.88
2023-01-19T20:43:50.078Z,1.20
2023-01-19T20:46:21.547Z,1.00
2023-01-19T20:48:52.981Z,0.90
2023-01-19T20:51:20.820Z,0.88
2023-01-19T20:53:53.019Z,0.17
2023-01-19T20:56:22.499Z,0.30
2023-01-19T20:58:49.291Z,0.40
2023-01-19T21:01:25.669Z,0.45
2023-01-19T21:03:52.611Z,0.50
2023-01-19T21:06:21.470Z,0.60
2023-01-19T21:08:51.922Z,0.55
2023-01-19T21:11:21.301Z,0.25
2023-01-19T21:13:55.589Z,0.30
2023-01-19T21:16:32.135Z,0.55
2023-01-19T21:18:59.481Z,0.57
2023-01-19T21:21:31.685Z,0.50
2023-01-19T21:24:00.230Z,0.57
2023-01-19T21:26:30.062Z,0.85
2023-01-19T21:28:58.503Z,0.93
2023-01-19T21:31:28.624Z,1.13
2023-01-19T21:33:58.023Z,0.60
2023-01-19T21:36:25.261Z,0.88
2023-01-19T21:38:52.741Z,1.20
2023-01-19T21:41:19.885Z,1.15
2023-01-19T21:43:50.390Z,1.05
2023-01-19T21:46:30.704Z,0.93
2023-01-19T21:48:59.344Z,1.48
2023-01-19T21:51:35.128Z,1.23
2023-01-19T21:54:06.093Z,1.20
2023-01-19T21:56:33.804Z,2.03
2023-01-19T21:59:03.210Z,1.23
2023-01-19T22:01:31.016Z,1.80
2023-01-19T22:03:58.701Z,2.20
2023-01-19T22:06:26.779Z,2.10
2023-01-19T22:08:54.191Z,1.85
2023-01-19T22:11:22.690Z,1.55
2023-01-19T22:16:19.476Z,1.63
2023-01-19T22:18:55.645Z,1.45
2023-01-19T22:21:25.052Z,1.70
2023-01-19T22:23:55.910Z,2.42
2023-01-19T22:26:25.711Z,1.90
2023-01-19T22:28:57.350Z,1.90
2023-01-19T22:31:26.423Z,1.85
2023-01-19T22:33:53.957Z,2.17
2023-01-19T22:36:26.894Z,1.75
2023-01-19T22:38:58.286Z,1.35
2023-01-19T22:41:33.612Z,2.28
2023-01-19T22:44:07.606Z,2.58
2023-01-19T22:46:36.508Z,1.83
2023-01-19T22:49:05.125Z,2.03
2023-01-19T22:51:33.057Z,2.40
2023-01-19T22:54:00.561Z,2.70
2023-01-19T22:56:29.913Z,1.77
2023-01-19T22:58:58.833Z,2.72
2023-01-19T23:01:26.492Z,2.60
2023-01-19T23:03:54.572Z,2.37
2023-01-19T23:06:23.962Z,2.45
2023-01-19T23:08:51.241Z,2.45
2023-01-19T23:11:20.450Z,2.53
2023-01-19T23:13:47.215Z,2.83
2023-01-19T23:16:14.197Z,2.47
2023-01-19T23:18:45.014Z,2.28
2023-01-19T23:21:22.530Z,2.13
2023-01-19T23:23:52.844Z,2.30
2023-01-19T23:26:20.281Z,2.20
2023-01-19T23:28:47.886Z,2.33
2023-01-19T23:31:18.539Z,2.40
2023-01-19T23:33:50.346Z,2.35
2023-01-19T23:36:18.075Z,2.00
2023-01-19T23:38:50.721Z,2.00
2023-01-19T23:41:20.097Z,2.15
2023-01-19T23:43:47.061Z,2.70
2023-01-19T23:46:15.664Z,2.10
2023-01-19T23:48:42.407Z,2.30
2023-01-19T23:51:30.375Z,2.22
2023-01-19T23:53:58.845Z,2.40
2023-01-19T23:58:54.597Z,1.95
